createdAt,value
2019-02-11T00:04:24.223Z,8.03
2019-02-11T00:09:28.563Z,8.12
2019-02-11T00:14:32.923Z,7.88
2019-02-11T00:19:37.332Z,8.22
2019-02-11T00:24:41.735Z,8.08
2019-02-11T00:29:46.109Z,8.07
2019-02-11T00:34:50.470Z,7.98
2019-02-11T00:39:55.038Z,7.91
2019-02-11T00:44:59.378Z,7.99
2019-02-11T00:50:07.496Z,7.85
2019-02-11T00:55:12.008Z,7.76
2019-02-11T01:00:16.385Z,8.09
2019-02-11T01:05:21.017Z,7.73
2019-02-11T01:10:25.357Z,7.88
2019-02-11T01:15:29.709Z,7.64
2019-02-11T01:20:35.157Z,7.54
2019-02-11T01:25:39.536Z,7.61
2019-02-11T01:30:44.035Z,7.31
2019-02-11T01:35:48.432Z,7.25
2019-02-11T01:40:52.762Z,7.33
2019-02-11T01:45:57.106Z,7.23
2019-02-11T01:51:01.445Z,7.28
2019-02-11T01:56:05.879Z,6.89
2019-02-11T02:01:10.240Z,6.85
2019-02-11T02:06:14.600Z,6.68
2019-02-11T02:11:18.933Z,6.85
2019-02-11T02:16:23.326Z,6.67
2019-02-11T02:21:27.681Z,6.82
2019-02-11T02:26:32.048Z,6.29
2019-02-11T02:31:36.395Z,6.35
2019-02-11T02:36:40.728Z,6.63
2019-02-11T02:41:45.068Z,6.16
2019-02-11T02:46:49.451Z,6.14
2019-02-11T02:51:53.818Z,6.29
2019-02-11T02:56:58.201Z,5.75
2019-02-11T03:02:02.691Z,5.72
2019-02-11T03:07:07.258Z,5.61
2019-02-11T03:12:11.574Z,5.46
2019-02-11T03:17:15.916Z,5.67
2019-02-11T03:22:20.314Z,5.61
2019-02-11T03:27:24.782Z,5.33
2019-02-11T03:32:29.187Z,5.17
2019-02-11T03:37:33.562Z,5.08
2019-02-11T03:42:38.013Z,5.08
2019-02-11T03:47:42.412Z,5.25
2019-02-11T03:52:46.807Z,5.48
2019-02-11T03:57:51.211Z,5.27
2019-02-11T04:02:55.537Z,5.15
2019-02-11T04:07:59.884Z,5.07
2019-02-11T04:13:04.286Z,5.02
2019-02-11T04:18:08.651Z,5.08
2019-02-11T04:23:12.980Z,5.15
2019-02-11T04:28:17.349Z,5.06
2019-02-11T04:33:21.819Z,4.80
2019-02-11T04:38:26.224Z,4.95
2019-02-11T04:43:30.647Z,5.30
2019-02-11T04:48:35.029Z,5.13
2019-02-11T04:53:39.435Z,5.10
2019-02-11T04:58:43.797Z,5.50
2019-02-11T05:03:48.134Z,5.52
2019-02-11T05:08:52.473Z,5.31
2019-02-11T05:13:56.836Z,4.96
2019-02-11T05:19:01.243Z,5.26
2019-02-11T05:24:05.682Z,5.19
2019-02-11T05:29:10.052Z,5.31
2019-02-11T05:34:14.389Z,5.08
2019-02-11T05:39:19.817Z,5.00
2019-02-11T05:44:24.208Z,5.10
2019-02-11T05:49:28.598Z,5.14
2019-02-11T05:54:33.029Z,5.43
2019-02-11T05:59:37.373Z,5.18
2019-02-11T06:04:44.555Z,5.30
2019-02-11T06:09:52.665Z,5.45
2019-02-11T06:15:04.188Z,5.45
2019-02-11T06:20:07.231Z,5.32
2019-02-11T06:25:11.716Z,5.42
2019-02-11T06:30:16.062Z,5.14
2019-02-11T06:35:20.597Z,5.33
2019-02-11T06:40:24.958Z,5.23
2019-02-11T06:45:29.591Z,5.37
2019-02-11T06:50:33.952Z,5.25
2019-02-11T06:55:38.346Z,5.18
2019-02-11T07:00:42.686Z,5.27
2019-02-11T07:05:47.018Z,5.48
2019-02-11T07:10:55.685Z,5.18
2019-02-11T07:15:57.393Z,5.59
2019-02-11T07:21:01.734Z,5.32
2019-02-11T07:26:06.101Z,5.35
2019-02-11T07:31:11.213Z,5.01
2019-02-11T07:36:17.976Z,5.08
2019-02-11T07:41:24.271Z,5.23
2019-02-11T07:46:30.518Z,5.10
2019-02-11T07:51:42.117Z,5.03
2019-02-11T07:56:41.030Z,5.13
2019-02-11T08:01:45.387Z,5.10
2019-02-11T08:06:49.761Z,5.50
2019-02-11T08:11:54.141Z,5.30
2019-02-11T08:16:58.498Z,5.53
2019-02-11T08:22:02.901Z,5.49
2019-02-11T08:27:07.345Z,5.86
2019-02-11T08:32:11.737Z,5.71
2019-02-11T08:37:16.111Z,5.72
2019-02-11T08:42:20.546Z,5.67
2019-02-11T08:47:24.923Z,5.73
2019-02-11T08:52:29.361Z,5.67
2019-02-11T08:57:33.699Z,5.74
2019-02-11T09:02:39.040Z,5.97
2019-02-11T09:07:43.453Z,6.09
2019-02-11T09:12:47.808Z,6.04
2019-02-11T09:17:52.193Z,5.96
2019-02-11T09:22:56.530Z,5.96
2019-02-11T09:28:00.858Z,5.93
2019-02-11T09:33:06.175Z,6.27
2019-02-11T09:38:10.533Z,6.15
2019-02-11T09:43:14.856Z,6.42
2019-02-11T09:48:19.303Z,6.27
2019-02-11T09:53:23.703Z,6.57
2019-02-11T09:58:28.092Z,6.39
2019-02-11T10:03:32.420Z,6.58
2019-02-11T10:08:36.854Z,6.56
2019-02-11T10:13:41.286Z,6.52
2019-02-11T10:18:45.689Z,6.68
2019-02-11T10:23:50.262Z,6.70
2019-02-11T10:28:54.622Z,6.85
2019-02-11T10:33:58.998Z,6.68
2019-02-11T10:39:04.255Z,6.95
2019-02-11T10:44:10.281Z,7.06
2019-02-11T10:49:14.629Z,6.97
2019-02-11T10:54:19.976Z,6.91
2019-02-11T10:59:24.493Z,6.77
2019-02-11T11:04:28.839Z,6.82
2019-02-11T11:09:33.264Z,6.85
2019-02-11T11:14:37.697Z,7.01
2019-02-11T11:19:42.108Z,6.71
2019-02-11T11:24:46.443Z,6.63
2019-02-11T11:29:51.019Z,7.03
2019-02-11T11:34:55.386Z,7.05
2019-02-11T11:39:59.890Z,7.28
2019-02-11T11:45:06.103Z,6.85
2019-02-11T11:50:11.373Z,6.96
2019-02-11T11:55:23.529Z,7.21
2019-02-11T12:00:32.906Z,7.58
2019-02-11T12:05:37.247Z,7.15
2019-02-11T12:10:41.798Z,7.41
2019-02-11T12:15:46.133Z,7.23
2019-02-11T12:20:50.501Z,7.09
2019-02-11T12:25:54.857Z,6.85
2019-02-11T12:30:59.246Z,6.30
2019-02-11T12:36:03.712Z,6.50
2019-02-11T12:41:08.099Z,6.45
2019-02-11T12:46:12.534Z,6.45
2019-02-11T12:51:16.950Z,6.20
2019-02-11T12:56:21.422Z,6.44
2019-02-11T13:01:25.820Z,6.49
2019-02-11T13:06:30.305Z,6.86
2019-02-11T13:11:34.688Z,7.06
2019-02-11T13:16:39.191Z,7.06
2019-02-11T13:21:43.517Z,7.08
2019-02-11T13:26:47.882Z,7.29
2019-02-11T13:31:52.424Z,7.09
2019-02-11T13:36:56.857Z,6.71
2019-02-11T13:42:01.223Z,7.04
2019-02-11T13:47:05.807Z,6.95
2019-02-11T13:52:10.158Z,7.19
2019-02-11T13:57:14.673Z,7.02
2019-02-11T14:02:19.225Z,7.17
2019-02-11T14:07:23.607Z,7.25
2019-02-11T14:12:28.021Z,7.11
2019-02-11T14:17:32.417Z,7.06
2019-02-11T14:22:36.817Z,7.15
2019-02-11T14:27:42.609Z,7.17
2019-02-11T14:32:48.781Z,7.11
2019-02-11T14:37:53.535Z,7.22
2019-02-11T14:42:59.466Z,7.22
2019-02-11T14:48:25.653Z,7.34
2019-02-11T14:53:16.356Z,7.42
2019-02-11T14:58:22.497Z,7.41
2019-02-11T15:03:26.941Z,7.18
2019-02-11T15:08:31.315Z,7.31
2019-02-11T15:13:35.771Z,7.32
2019-02-11T15:18:40.114Z,7.31
2019-02-11T15:23:44.477Z,7.07
2019-02-11T15:28:48.863Z,6.93
2019-02-11T15:33:55.757Z,6.96
2019-02-11T15:39:00.131Z,6.74
2019-02-11T15:44:04.530Z,6.81
2019-02-11T15:49:08.944Z,6.80
2019-02-11T15:54:13.367Z,6.59
2019-02-11T15:59:17.716Z,6.77
2019-02-11T16:04:22.454Z,6.77
2019-02-11T16:09:26.808Z,6.77
2019-02-11T16:14:31.245Z,6.53
2019-02-11T16:19:35.636Z,6.50
2019-02-11T16:24:40.051Z,6.51
2019-02-11T16:29:44.403Z,6.43
2019-02-11T16:34:48.822Z,6.43
2019-02-11T16:39:53.339Z,6.65
2019-02-11T16:44:57.718Z,6.30
2019-02-11T16:50:02.145Z,6.31
2019-02-11T16:55:11.785Z,6.23
2019-02-11T17:00:20.051Z,5.95
2019-02-11T17:05:24.477Z,6.26
2019-02-11T17:10:28.824Z,5.53
2019-02-11T17:15:33.243Z,5.78
2019-02-11T17:20:37.614Z,5.78
2019-02-11T17:25:41.949Z,5.61
2019-02-11T17:30:46.324Z,5.21
2019-02-11T17:35:50.846Z,5.35
2019-02-11T17:40:55.229Z,5.20
2019-02-11T17:45:59.571Z,5.30
2019-02-11T17:51:03.953Z,5.05
2019-02-11T17:56:10.947Z,4.99
2019-02-11T18:01:16.455Z,4.78
2019-02-11T18:06:20.866Z,5.04
2019-02-11T18:11:25.294Z,5.09
2019-02-11T18:16:29.677Z,5.00
2019-02-11T18:21:34.052Z,5.18
2019-02-11T18:26:38.482Z,5.22
2019-02-11T18:31:42.914Z,5.15
2019-02-11T18:37:10.835Z,5.10
2019-02-11T18:42:15.224Z,4.90
2019-02-11T18:47:19.602Z,4.63
2019-02-11T18:52:23.969Z,5.07
2019-02-11T18:57:28.553Z,4.68
2019-02-11T19:02:32.902Z,4.91
2019-02-11T19:07:37.453Z,4.71
2019-02-11T19:12:41.805Z,4.77
2019-02-11T19:17:46.160Z,4.74
2019-02-11T19:22:51.512Z,4.78
2019-02-11T19:27:55.953Z,4.70
2019-02-11T19:33:00.298Z,4.59
2019-02-11T19:38:04.767Z,4.48
2019-02-11T19:43:09.635Z,4.60
2019-02-11T19:48:15.061Z,4.76
2019-02-11T19:53:19.442Z,4.68
2019-02-11T19:58:23.788Z,4.69
2019-02-11T20:03:28.151Z,4.69
2019-02-11T20:08:32.546Z,4.46
2019-02-11T20:13:36.926Z,4.37
2019-02-11T20:18:41.304Z,4.54
2019-02-11T20:23:45.689Z,4.53
2019-02-11T20:28:50.050Z,4.52
2019-02-11T20:33:54.428Z,4.25
2019-02-11T20:38:58.883Z,4.34
2019-02-11T20:44:03.358Z,4.30
2019-02-11T20:49:07.911Z,4.25
2019-02-11T20:54:16.266Z,4.13
2019-02-11T20:59:20.738Z,4.20
2019-02-11T21:04:27.729Z,4.23
2019-02-11T21:09:32.251Z,4.27
2019-02-11T21:14:36.639Z,3.99
2019-02-11T21:19:41.044Z,4.04
2019-02-11T21:24:45.457Z,3.78
2019-02-11T21:29:49.802Z,3.99
2019-02-11T21:34:54.265Z,3.96
2019-02-11T21:39:58.928Z,3.77
2019-02-11T21:45:04.028Z,3.79
2019-02-11T21:50:11.387Z,3.96
2019-02-11T21:55:17.553Z,3.80
2019-02-11T22:00:22.744Z,3.60
2019-02-11T22:05:28.257Z,3.92
2019-02-11T22:10:32.610Z,3.93
2019-02-11T22:15:36.963Z,3.63
2019-02-11T22:20:41.354Z,3.68
2019-02-11T22:25:45.709Z,3.67
2019-02-11T22:30:50.053Z,3.54
2019-02-11T22:35:54.443Z,3.40
2019-02-11T22:40:59.776Z,3.54
2019-02-11T22:46:04.157Z,3.47
2019-02-11T22:51:08.491Z,3.24
2019-02-11T22:56:12.935Z,3.12
2019-02-11T23:01:17.794Z,3.35
2019-02-11T23:06:22.243Z,3.53
2019-02-11T23:11:26.679Z,3.69
2019-02-11T23:16:31.031Z,3.48
2019-02-11T23:21:35.396Z,3.46
2019-02-11T23:26:39.758Z,3.45
2019-02-11T23:31:44.153Z,3.40
2019-02-11T23:36:48.519Z,3.52
2019-02-11T23:41:52.954Z,3.70
2019-02-11T23:46:57.331Z,3.79
2019-02-11T23:52:01.712Z,3.99
2019-02-11T23:57:06.068Z,3.90
